createdAt,value
2023-03-19T00:01:10.926Z,28.40
2023-03-19T00:03:44.968Z,29.40
2023-03-19T00:06:13.919Z,29.50
2023-03-19T00:08:42.255Z,26.80
2023-03-19T00:11:13.386Z,27.20
2023-03-19T00:13:41.755Z,26.10
2023-03-19T00:16:10.229Z,28.60
2023-03-19T00:18:38.633Z,27.50
2023-03-19T00:21:07.257Z,26.80
2023-03-19T00:23:37.059Z,27.20
2023-03-19T00:26:06.927Z,27.10
2023-03-19T00:28:37.308Z,28.90
2023-03-19T00:31:12.788Z,27.00
2023-03-19T00:33:42.940Z,29.50
2023-03-19T00:36:11.972Z,25.80
2023-03-19T00:38:40.412Z,27.50
2023-03-19T00:41:09.398Z,29.50
2023-03-19T00:43:38.474Z,25.50
2023-03-19T00:46:07.280Z,27.10
2023-03-19T00:48:36.148Z,27.30
2023-03-19T00:51:08.891Z,26.70
2023-03-19T00:53:39.833Z,26.50
2023-03-19T00:56:10.799Z,29.10
2023-03-19T00:58:41.260Z,28.40
2023-03-19T01:01:13.289Z,26.40
2023-03-19T01:03:41.885Z,28.30
2023-03-19T01:06:10.599Z,30.30
2023-03-19T01:08:38.930Z,29.00
2023-03-19T01:11:18.013Z,26.70
2023-03-19T01:13:46.748Z,26.90
2023-03-19T01:16:15.124Z,26.70
2023-03-19T01:18:43.523Z,23.90
2023-03-19T01:21:11.875Z,24.70
2023-03-19T01:23:40.991Z,26.90
2023-03-19T01:26:09.410Z,28.20
2023-03-19T01:28:37.738Z,29.00
2023-03-19T01:31:08.895Z,25.90
2023-03-19T01:33:37.857Z,25.10
2023-03-19T01:36:08.053Z,25.50
2023-03-19T01:38:36.755Z,30.40
2023-03-19T01:41:05.331Z,27.30
2023-03-19T01:43:33.693Z,25.30
2023-03-19T01:46:11.834Z,26.60
2023-03-19T01:48:51.654Z,25.90
2023-03-19T01:51:26.486Z,26.40
2023-03-19T01:54:00.581Z,18.50
2023-03-19T01:56:35.433Z,25.70
2023-03-19T01:59:22.165Z,26.60
2023-03-19T02:02:31.514Z,26.90
2023-03-19T02:05:14.765Z,25.30
2023-03-19T02:07:46.320Z,25.50
2023-03-19T02:10:17.728Z,27.70
2023-03-19T02:12:46.625Z,24.00
2023-03-19T02:15:15.725Z,26.90
2023-03-19T02:17:44.184Z,26.50
2023-03-19T02:20:34.313Z,26.30
2023-03-19T02:23:34.927Z,25.30
2023-03-19T02:26:07.697Z,24.70
2023-03-19T02:28:41.464Z,24.40
2023-03-19T02:31:11.124Z,26.50
2023-03-19T02:33:40.135Z,23.80
2023-03-19T02:36:20.169Z,23.70
2023-03-19T02:38:48.934Z,24.00
2023-03-19T02:41:17.722Z,24.50
2023-03-19T02:43:46.648Z,23.90
2023-03-19T02:46:15.021Z,24.80
2023-03-19T02:48:44.101Z,24.40
2023-03-19T02:51:13.641Z,23.80
2023-03-19T02:53:42.020Z,22.90
2023-03-19T02:56:10.538Z,22.50
2023-03-19T02:58:38.911Z,22.50
2023-03-19T03:01:07.458Z,22.90
2023-03-19T03:03:35.831Z,22.00
2023-03-19T03:06:04.331Z,23.10
2023-03-19T03:08:33.419Z,21.40
2023-03-19T03:11:02.022Z,22.90
2023-03-19T03:13:30.353Z,22.00
2023-03-19T03:15:59.100Z,22.80
2023-03-19T03:18:28.017Z,22.90
2023-03-19T03:20:56.745Z,21.80
2023-03-19T03:23:25.224Z,20.60
2023-03-19T03:25:53.608Z,21.90
2023-03-19T03:28:21.967Z,20.50
2023-03-19T03:30:51.125Z,21.70
2023-03-19T03:33:19.761Z,21.80
2023-03-19T03:35:48.309Z,21.60
2023-03-19T03:38:16.708Z,21.20
2023-03-19T03:40:45.053Z,22.00
2023-03-19T03:43:13.399Z,22.50
2023-03-19T03:45:43.744Z,22.60
2023-03-19T03:48:12.045Z,20.50
2023-03-19T03:50:40.924Z,23.30
2023-03-19T03:53:12.174Z,21.20
2023-03-19T03:55:41.448Z,22.20
2023-03-19T03:58:09.956Z,20.40
2023-03-19T04:00:39.245Z,23.10
2023-03-19T04:03:07.653Z,23.50
2023-03-19T04:05:37.169Z,23.10
2023-03-19T04:08:07.971Z,22.80
2023-03-19T04:10:42.271Z,21.60
2023-03-19T04:13:12.870Z,22.30
2023-03-19T04:15:44.861Z,21.10
2023-03-19T04:18:13.222Z,21.80
2023-03-19T04:20:42.028Z,22.40
2023-03-19T04:23:10.357Z,22.30
2023-03-19T04:25:41.737Z,20.90
2023-03-19T04:28:10.481Z,22.10
2023-03-19T04:30:39.034Z,21.90
2023-03-19T04:33:07.724Z,22.10
2023-03-19T04:35:36.377Z,22.00
2023-03-19T04:38:05.544Z,21.10
2023-03-19T04:40:34.139Z,21.40
2023-03-19T04:43:02.885Z,23.60
2023-03-19T04:45:31.316Z,21.80
2023-03-19T04:47:59.960Z,22.50
2023-03-19T04:50:29.367Z,26.50
2023-03-19T04:52:57.694Z,25.70
2023-03-19T04:55:26.151Z,26.20
2023-03-19T04:57:54.572Z,25.60
2023-03-19T05:00:22.955Z,21.80
2023-03-19T05:02:51.367Z,24.60
2023-03-19T05:05:19.730Z,22.80
2023-03-19T05:07:48.144Z,23.30
2023-03-19T05:10:16.674Z,21.40
2023-03-19T05:12:49.169Z,21.00
2023-03-19T05:15:17.666Z,21.00
2023-03-19T05:17:46.030Z,21.10
2023-03-19T05:20:15.603Z,22.90
2023-03-19T05:22:43.955Z,21.00
2023-03-19T05:25:13.549Z,19.70
2023-03-19T05:27:41.917Z,20.30
2023-03-19T05:30:12.437Z,20.60
2023-03-19T05:32:40.979Z,21.00
2023-03-19T05:35:09.856Z,21.80
2023-03-19T05:37:38.517Z,20.50
2023-03-19T05:40:07.899Z,18.80
2023-03-19T05:42:36.762Z,20.10
2023-03-19T05:45:05.742Z,20.90
2023-03-19T05:47:35.095Z,18.80
2023-03-19T05:50:04.053Z,19.00
2023-03-19T05:52:32.497Z,19.20
2023-03-19T05:55:01.052Z,20.60
2023-03-19T05:57:29.380Z,19.80
2023-03-19T05:59:57.893Z,20.00
2023-03-19T06:02:26.304Z,20.30
2023-03-19T06:04:54.652Z,18.70
2023-03-19T06:07:23.091Z,19.20
2023-03-19T06:09:51.881Z,20.30
2023-03-19T06:12:20.702Z,18.90
2023-03-19T06:14:49.136Z,19.40
2023-03-19T06:17:17.485Z,19.70
2023-03-19T06:19:46.337Z,19.40
2023-03-19T06:22:14.732Z,18.60
2023-03-19T06:24:43.086Z,17.90
2023-03-19T06:27:11.599Z,19.00
2023-03-19T06:29:40.060Z,15.10
2023-03-19T06:32:09.796Z,14.30
2023-03-19T06:34:38.613Z,14.00
2023-03-19T06:37:07.553Z,14.80
2023-03-19T06:39:35.872Z,14.20
2023-03-19T06:42:04.700Z,14.00
2023-03-19T06:44:33.553Z,13.60
2023-03-19T06:47:01.863Z,14.50
2023-03-19T06:49:30.630Z,14.30
2023-03-19T06:51:59.016Z,14.40
2023-03-19T06:54:27.332Z,15.00
2023-03-19T06:56:55.682Z,15.40
2023-03-19T06:59:23.990Z,13.90
2023-03-19T07:01:52.643Z,15.00
2023-03-19T07:04:21.426Z,14.60
2023-03-19T07:06:49.787Z,14.20
2023-03-19T07:09:18.159Z,14.80
2023-03-19T07:11:46.784Z,14.30
2023-03-19T07:14:15.374Z,13.10
2023-03-19T07:16:43.721Z,14.60
2023-03-19T07:19:12.174Z,12.60
2023-03-19T07:21:40.477Z,14.70
2023-03-19T07:24:08.828Z,13.80
2023-03-19T07:26:37.125Z,11.20
2023-03-19T07:29:06.406Z,12.40
2023-03-19T07:31:34.945Z,12.70
2023-03-19T07:34:03.874Z,13.80
2023-03-19T07:36:32.898Z,12.50
2023-03-19T07:39:01.360Z,12.80
2023-03-19T07:41:29.774Z,13.70
2023-03-19T07:43:58.142Z,13.50
2023-03-19T07:46:26.626Z,13.10
2023-03-19T07:48:55.403Z,13.20
2023-03-19T07:51:23.798Z,11.90
2023-03-19T07:53:52.203Z,12.50
2023-03-19T07:56:20.553Z,11.80
2023-03-19T07:58:49.123Z,13.10
2023-03-19T08:01:18.718Z,10.60
2023-03-19T08:03:48.627Z,13.20
2023-03-19T08:06:17.033Z,12.80
2023-03-19T08:08:45.638Z,11.20
2023-03-19T08:11:14.099Z,13.00
2023-03-19T08:13:42.761Z,14.70
2023-03-19T08:16:11.779Z,12.80
2023-03-19T08:18:40.224Z,13.10
2023-03-19T08:21:08.751Z,12.10
2023-03-19T08:23:37.113Z,12.30
2023-03-19T08:26:05.435Z,11.50
2023-03-19T08:28:34.337Z,13.40
2023-03-19T08:31:11.903Z,13.10
2023-03-19T08:33:41.360Z,12.10
2023-03-19T08:36:14.660Z,13.40
2023-03-19T08:38:43.763Z,12.00
2023-03-19T08:41:12.464Z,11.50
2023-03-19T08:43:40.928Z,12.30
2023-03-19T08:46:09.441Z,14.70
2023-03-19T08:48:39.704Z,13.00
2023-03-19T08:51:10.876Z,11.40
2023-03-19T08:53:39.243Z,11.80
2023-03-19T08:56:08.744Z,12.40
2023-03-19T08:58:37.362Z,11.90
2023-03-19T09:01:11.975Z,10.90
2023-03-19T09:03:42.785Z,11.70
2023-03-19T09:06:14.675Z,10.50
2023-03-19T09:08:43.402Z,10.10
2023-03-19T09:11:12.149Z,11.10
2023-03-19T09:13:40.766Z,11.50
2023-03-19T09:16:09.582Z,11.50
2023-03-19T09:18:37.996Z,11.00
2023-03-19T09:21:06.378Z,10.90
2023-03-19T09:23:34.675Z,11.50
2023-03-19T09:26:03.076Z,10.00
2023-03-19T09:28:31.779Z,9.60
2023-03-19T09:31:00.299Z,9.30
2023-03-19T09:33:28.654Z,9.60
2023-03-19T09:35:57.201Z,10.10
2023-03-19T09:38:25.631Z,10.60
2023-03-19T09:41:28.545Z,10.10
2023-03-19T09:44:10.812Z,10.40
2023-03-19T09:46:50.070Z,9.00
2023-03-19T09:49:33.556Z,10.10
2023-03-19T09:52:28.568Z,10.30
2023-03-19T09:55:03.108Z,9.60
2023-03-19T09:57:33.321Z,11.50
2023-03-19T10:00:06.829Z,10.80
2023-03-19T10:02:43.668Z,10.10
2023-03-19T10:05:54.199Z,10.00
2023-03-19T10:08:51.675Z,10.00
2023-03-19T10:12:04.770Z,10.50
2023-03-19T10:14:54.065Z,10.90
2023-03-19T10:17:33.035Z,9.40
2023-03-19T10:20:22.930Z,10.00
2023-03-19T10:23:00.579Z,9.50
2023-03-19T10:25:41.638Z,9.10
2023-03-19T10:28:17.425Z,10.30
2023-03-19T10:31:02.737Z,10.00
2023-03-19T10:33:52.442Z,9.70
2023-03-19T10:36:27.320Z,10.10
2023-03-19T10:41:41.011Z,10.10
2023-03-19T10:44:27.438Z,9.60
2023-03-19T10:46:59.844Z,9.40
2023-03-19T10:49:28.177Z,9.10
2023-03-19T10:51:58.013Z,8.70
2023-03-19T10:54:28.964Z,7.80
2023-03-19T10:57:01.289Z,9.30
2023-03-19T10:59:29.498Z,8.90
2023-03-19T11:02:02.556Z,7.70
2023-03-19T11:04:32.393Z,8.50
2023-03-19T11:07:12.545Z,9.20
2023-03-19T11:09:53.293Z,8.60
2023-03-19T11:12:33.979Z,8.30
2023-03-19T11:15:04.080Z,8.50
2023-03-19T11:17:57.482Z,8.50
2023-03-19T11:20:38.548Z,8.50
2023-03-19T11:23:15.804Z,7.50
2023-03-19T11:25:53.285Z,8.00
2023-03-19T11:28:26.501Z,8.80
2023-03-19T11:31:29.102Z,9.10
2023-03-19T11:34:18.831Z,8.50
2023-03-19T11:37:15.234Z,9.30
2023-03-19T11:40:14.764Z,8.60
2023-03-19T11:43:23.688Z,9.10
2023-03-19T11:46:13.344Z,8.60
2023-03-19T11:49:22.862Z,9.10
2023-03-19T11:52:01.797Z,8.20
2023-03-19T11:54:54.675Z,10.10
2023-03-19T11:57:43.672Z,8.80
2023-03-19T12:00:35.506Z,8.80
2023-03-19T12:03:22.284Z,8.10
2023-03-19T12:06:35.045Z,8.30
2023-03-19T12:09:52.868Z,8.00
2023-03-19T12:12:46.469Z,8.50
2023-03-19T12:15:42.775Z,8.30
2023-03-19T12:18:39.225Z,9.20
2023-03-19T12:21:31.216Z,8.50
2023-03-19T12:24:04.205Z,9.10
2023-03-19T12:27:04.299Z,8.00
2023-03-19T12:29:57.214Z,8.00
2023-03-19T12:32:42.406Z,7.60
2023-03-19T12:35:16.539Z,8.10
2023-03-19T12:37:53.764Z,8.10
2023-03-19T12:40:37.489Z,9.20
2023-03-19T12:43:34.834Z,9.10
2023-03-19T12:46:19.416Z,8.80
2023-03-19T12:48:55.038Z,7.80
2023-03-19T12:51:35.226Z,9.10
2023-03-19T12:54:32.731Z,8.70
2023-03-19T12:57:31.204Z,8.00
2023-03-19T13:00:24.508Z,8.20
2023-03-19T13:03:22.477Z,9.60
2023-03-19T13:06:08.597Z,9.00
2023-03-19T13:09:05.655Z,9.70
2023-03-19T13:11:46.247Z,8.50
2023-03-19T13:14:48.492Z,8.10
2023-03-19T13:17:53.307Z,8.70
2023-03-19T13:20:50.800Z,9.10
2023-03-19T13:23:27.391Z,8.40
2023-03-19T13:25:59.119Z,8.50
2023-03-19T13:28:37.162Z,8.20
2023-03-19T13:31:20.758Z,8.80
2023-03-19T13:34:12.443Z,8.70
2023-03-19T13:36:41.223Z,9.40
2023-03-19T13:39:18.289Z,9.80
2023-03-19T13:42:09.123Z,8.90
2023-03-19T13:45:36.264Z,8.40
2023-03-19T13:48:26.740Z,7.90
2023-03-19T13:51:26.757Z,8.00
2023-03-19T13:54:13.614Z,8.80
2023-03-19T13:57:04.992Z,8.40
2023-03-19T13:59:36.247Z,9.60
2023-03-19T14:02:25.603Z,8.30
2023-03-19T14:05:10.463Z,9.00
2023-03-19T14:07:42.248Z,9.90
2023-03-19T14:10:29.097Z,10.00
2023-03-19T14:13:04.962Z,10.00
2023-03-19T14:15:35.479Z,9.50
2023-03-19T14:18:06.298Z,9.20
2023-03-19T14:20:59.518Z,8.80
2023-03-19T14:23:40.889Z,9.30
2023-03-19T14:26:25.514Z,9.70
2023-03-19T14:29:07.391Z,8.50
2023-03-19T14:31:38.796Z,8.30
2023-03-19T14:34:43.648Z,8.90
2023-03-19T14:37:37.045Z,9.30
2023-03-19T14:40:26.050Z,9.20
2023-03-19T14:43:47.682Z,8.50
2023-03-19T14:46:33.921Z,8.00
2023-03-19T14:49:50.386Z,9.60
2023-03-19T14:52:45.051Z,8.50
2023-03-19T14:57:44.609Z,7.40
2023-03-19T15:00:18.316Z,8.30
2023-03-19T15:02:52.863Z,9.10
2023-03-19T15:05:29.355Z,9.90
2023-03-19T15:08:03.998Z,8.80
2023-03-19T15:10:51.506Z,8.30
2023-03-19T15:14:08.851Z,8.00
2023-03-19T15:17:12.665Z,8.80
2023-03-19T15:19:41.713Z,8.10
2023-03-19T15:22:20.610Z,8.40
2023-03-19T15:24:49.077Z,8.10
2023-03-19T15:27:26.761Z,8.20
2023-03-19T15:30:04.948Z,8.90
2023-03-19T15:33:10.566Z,7.50
2023-03-19T15:35:35.615Z,8.60
2023-03-19T15:38:12.386Z,9.60
2023-03-19T15:40:41.792Z,8.60
2023-03-19T15:43:13.295Z,8.60
2023-03-19T15:45:48.240Z,8.10
2023-03-19T15:48:35.246Z,7.90
2023-03-19T15:51:07.438Z,8.10
2023-03-19T15:53:38.752Z,9.00
2023-03-19T15:56:08.457Z,8.40
2023-03-19T15:58:47.180Z,8.10
2023-03-19T16:01:20.023Z,9.10
2023-03-19T16:04:13.584Z,7.50
2023-03-19T16:06:42.267Z,9.00
2023-03-19T16:09:13.679Z,7.80
2023-03-19T16:11:44.674Z,8.00
2023-03-19T16:14:27.159Z,8.50
2023-03-19T16:17:11.414Z,8.40
2023-03-19T16:19:54.143Z,8.20
2023-03-19T16:22:33.130Z,7.90
2023-03-19T16:25:06.840Z,8.20
2023-03-19T16:27:40.590Z,8.40
2023-03-19T16:30:30.907Z,8.50
2023-03-19T16:33:06.950Z,8.60
2023-03-19T16:35:38.013Z,8.60
2023-03-19T16:38:14.956Z,8.50
2023-03-19T16:40:47.982Z,8.80
2023-03-19T16:43:25.950Z,8.70
2023-03-19T16:46:08.483Z,8.50
2023-03-19T16:48:36.919Z,9.30
2023-03-19T16:51:17.963Z,8.80
2023-03-19T16:53:48.525Z,8.80
2023-03-19T16:56:18.864Z,10.30
2023-03-19T16:58:48.692Z,10.90
2023-03-19T17:01:24.982Z,11.10
2023-03-19T17:03:54.242Z,11.80
2023-03-19T17:06:26.041Z,9.60
2023-03-19T17:08:56.489Z,9.00
2023-03-19T17:11:39.099Z,10.60
2023-03-19T17:14:16.404Z,11.40
2023-03-19T17:16:51.951Z,10.00
2023-03-19T17:19:24.551Z,10.00
2023-03-19T17:21:59.749Z,10.00
2023-03-19T17:24:33.921Z,11.00
2023-03-19T17:27:05.227Z,10.50
2023-03-19T17:29:35.938Z,10.60
2023-03-19T17:32:07.806Z,11.10
2023-03-19T17:36:52.197Z,14.00
2023-03-19T17:39:20.540Z,14.30
2023-03-19T17:41:50.004Z,14.90
2023-03-19T17:44:18.416Z,14.80
2023-03-19T17:46:50.496Z,15.10
2023-03-19T17:49:31.750Z,14.00
2023-03-19T17:52:00.733Z,14.90
2023-03-19T17:54:29.131Z,16.10
2023-03-19T17:56:57.461Z,17.90
2023-03-19T17:59:25.835Z,17.00
2023-03-19T18:01:54.261Z,18.20
2023-03-19T18:04:22.774Z,19.80
2023-03-19T18:06:55.500Z,21.90
2023-03-19T18:09:28.496Z,21.80
2023-03-19T18:11:56.990Z,23.10
2023-03-19T18:14:25.301Z,19.10
2023-03-19T18:16:53.687Z,15.80
2023-03-19T18:19:34.955Z,15.50
2023-03-19T18:22:16.613Z,15.80
2023-03-19T18:24:45.324Z,15.60
2023-03-19T18:27:14.766Z,15.70
2023-03-19T18:29:43.207Z,19.70
2023-03-19T18:32:17.510Z,19.30
2023-03-19T18:34:46.231Z,21.00
2023-03-19T18:37:18.585Z,18.80
2023-03-19T18:39:47.468Z,17.60
2023-03-19T18:42:16.561Z,18.30
2023-03-19T18:44:44.984Z,18.00
2023-03-19T18:47:16.315Z,18.90
2023-03-19T18:49:44.913Z,17.90
2023-03-19T18:52:17.213Z,20.90
2023-03-19T18:54:47.706Z,19.60
2023-03-19T18:57:16.857Z,21.30
2023-03-19T18:59:45.906Z,24.70
2023-03-19T19:02:34.374Z,23.10
2023-03-19T19:05:03.604Z,20.10
2023-03-19T19:07:31.994Z,20.00
2023-03-19T19:10:00.807Z,15.30
2023-03-19T19:12:29.211Z,14.00
2023-03-19T19:15:05.073Z,13.70
2023-03-19T19:17:35.158Z,18.70
2023-03-19T19:20:03.912Z,35.70
2023-03-19T19:22:32.294Z,35.00
2023-03-19T19:25:00.710Z,32.60
2023-03-19T19:27:29.172Z,35.50
2023-03-19T19:29:57.625Z,42.50
2023-03-19T19:32:29.572Z,42.60
2023-03-19T19:34:58.081Z,46.50
2023-03-19T19:37:26.390Z,44.80
2023-03-19T19:39:54.801Z,41.50
2023-03-19T19:42:23.604Z,43.20
2023-03-19T19:44:55.636Z,42.80
2023-03-19T19:47:24.440Z,41.90
2023-03-19T19:49:52.896Z,38.90
2023-03-19T19:52:21.274Z,41.60
2023-03-19T19:54:51.888Z,46.90
2023-03-19T19:57:25.092Z,46.00
2023-03-19T19:59:55.366Z,69.00
2023-03-19T20:02:29.287Z,68.50
2023-03-19T20:04:58.878Z,61.90
2023-03-19T20:07:27.335Z,68.80
2023-03-19T20:09:56.247Z,71.50
2023-03-19T20:12:33.343Z,60.00
2023-03-19T20:15:02.355Z,57.70
2023-03-19T20:17:30.802Z,72.50
2023-03-19T20:19:59.142Z,60.00
2023-03-19T20:22:27.546Z,56.10
2023-03-19T20:24:56.009Z,60.10
2023-03-19T20:27:32.359Z,61.30
2023-03-19T20:30:00.871Z,57.40
2023-03-19T20:32:38.341Z,48.90
2023-03-19T20:35:20.919Z,46.40
2023-03-19T20:37:52.098Z,43.80
2023-03-19T20:40:23.878Z,46.40
2023-03-19T20:42:52.606Z,43.80
2023-03-19T20:45:24.993Z,41.50
2023-03-19T20:47:54.239Z,39.70
2023-03-19T20:50:29.871Z,37.80
2023-03-19T20:53:01.521Z,27.40
2023-03-19T20:55:34.134Z,24.50
2023-03-19T20:58:14.346Z,33.10
2023-03-19T21:00:43.414Z,34.70
2023-03-19T21:03:22.479Z,40.80
2023-03-19T21:05:55.692Z,39.50
2023-03-19T21:08:48.056Z,41.10
2023-03-19T21:11:23.043Z,35.50
2023-03-19T21:13:53.202Z,55.10
2023-03-19T21:16:27.437Z,87.80
2023-03-19T21:18:57.797Z,81.00
2023-03-19T21:21:37.169Z,82.40
2023-03-19T21:24:15.759Z,62.70
2023-03-19T21:26:46.337Z,60.80
2023-03-19T21:29:29.491Z,48.00
2023-03-19T21:31:58.160Z,42.30
2023-03-19T21:34:28.454Z,41.10
2023-03-19T21:36:56.875Z,50.50
2023-03-19T21:39:25.208Z,51.70
2023-03-19T21:41:53.980Z,59.40
2023-03-19T21:47:31.516Z,43.80
2023-03-19T21:50:00.484Z,40.80
2023-03-19T21:52:28.914Z,40.60
2023-03-19T21:54:57.264Z,39.90
2023-03-19T21:57:25.821Z,39.30
2023-03-19T21:59:54.254Z,35.90
2023-03-19T22:02:23.218Z,35.50
2023-03-19T22:04:51.932Z,40.10
2023-03-19T22:07:20.760Z,45.00
2023-03-19T22:09:49.179Z,47.00
2023-03-19T22:12:27.502Z,46.20
2023-03-19T22:14:55.992Z,41.10
2023-03-19T22:29:45.843Z,38.30
2023-03-19T22:32:19.168Z,50.90
2023-03-19T22:34:47.803Z,56.50
2023-03-19T22:37:28.095Z,48.80
2023-03-19T22:39:56.592Z,42.20
2023-03-19T22:42:26.394Z,40.20
2023-03-19T22:44:54.893Z,39.80
2023-03-19T22:47:26.106Z,43.20
2023-03-19T22:49:54.520Z,41.80
2023-03-19T22:52:22.986Z,38.50
2023-03-19T22:54:53.760Z,35.50
2023-03-19T22:57:22.171Z,35.30
2023-03-19T22:59:51.298Z,36.70
2023-03-19T23:02:19.690Z,105.90
2023-03-19T23:04:48.157Z,109.00
2023-03-19T23:07:16.606Z,51.70
2023-03-19T23:09:44.981Z,121.10
2023-03-19T23:12:13.715Z,58.80
2023-03-19T23:14:42.055Z,59.30
2023-03-19T23:17:17.513Z,47.10
2023-03-19T23:19:46.075Z,44.70
2023-03-19T23:22:17.362Z,46.00
2023-03-19T23:24:45.784Z,69.10
2023-03-19T23:27:26.325Z,98.10
2023-03-19T23:29:54.938Z,50.30
2023-03-19T23:32:23.329Z,41.20
2023-03-19T23:35:00.543Z,40.50
2023-03-19T23:37:30.088Z,38.40
2023-03-19T23:39:58.402Z,36.80
2023-03-19T23:42:30.257Z,36.80
2023-03-19T23:45:03.614Z,36.40
2023-03-19T23:47:32.969Z,38.60
2023-03-19T23:50:01.319Z,37.80
2023-03-19T23:52:29.685Z,35.40
2023-03-19T23:54:58.821Z,37.90
2023-03-19T23:57:27.284Z,37.80
2023-03-19T23:59:56.281Z,39.40
